Time;durP1;ratioP1;P1;durP2;ratioP2;P2;SDS_P1;SDS_P2;PMS_P1;PMS_P2;Temp;Humidity;BMP_temperature;BMP_pressure;BME280_temperature;BME280_humidity;BME280_pressure;Samples;Min_cycle;Max_cycle;Signal;HPM_P1;HPM_P2
2023/01/26 00:04:48;;;;;;;11.77;9.40;;;5.30;44.30;;;;;;10306671;28;20235;-72
2023/01/26 00:09:53;;;;;;;10.60;8.20;;;5.30;44.30;;;;;;10316350;28;20245;-72
2023/01/26 00:14:56;;;;;;;11.57;8.97;;;5.30;44.10;;;;;;10306649;28;20231;-69
2023/01/26 00:19:59;;;;;;;9.13;7.70;;;5.40;44.10;;;;;;10295806;28;20242;-70
2023/01/26 00:25:04;;;;;;;10.27;8.93;;;5.30;44.00;;;;;;10301481;28;20687;-70
2023/01/26 00:30:09;;;;;;;11.90;9.37;;;5.30;44.00;;;;;;10298643;28;20242;-70
2023/01/26 00:35:13;;;;;;;10.80;8.50;;;5.30;44.00;;;;;;10300732;28;20239;-69
2023/01/26 00:40:17;;;;;;;10.50;8.47;;;5.30;44.00;;;;;;10300219;28;20235;-70
2023/01/26 00:45:21;;;;;;;9.67;8.33;;;5.30;44.00;;;;;;10292077;28;20614;-69
2023/01/26 00:50:24;;;;;;;10.43;8.10;;;5.30;43.90;;;;;;10295583;28;20231;-69
2023/01/26 00:55:31;;;;;;;9.47;8.30;;;5.30;43.90;;;;;;10300282;28;20254;-70
2023/01/26 01:00:36;;;;;;;9.87;8.23;;;5.30;43.80;;;;;;10300485;28;20239;-69
2023/01/26 01:05:39;;;;;;;12.23;8.40;;;5.30;43.80;;;;;;10300026;28;20232;-70
2023/01/26 01:10:43;;;;;;;9.90;8.27;;;5.30;44.50;;;;;;10303066;28;20227;-72
2023/01/26 01:15:46;;;;;;;9.30;7.67;;;5.30;43.90;;;;;;10299774;28;20615;-70
2023/01/26 01:20:50;;;;;;;9.53;8.03;;;5.30;43.80;;;;;;10298088;28;20350;-70
2023/01/26 01:25:59;;;;;;;10.90;8.73;;;5.30;43.90;;;;;;10297462;28;20231;-69
2023/01/26 01:31:04;;;;;;;10.67;8.73;;;5.30;43.80;;;;;;10293985;28;20232;-69
2023/01/26 01:36:10;;;;;;;10.07;8.60;;;5.30;43.80;;;;;;10303320;28;21229;-72
2023/01/26 01:41:17;;;;;;;9.50;7.90;;;5.30;43.50;;;;;;10299818;28;20236;-69
2023/01/26 01:46:33;;;;;;;9.40;7.67;;;5.30;43.20;;;;;;10295535;28;20229;-72
2023/01/26 01:51:42;;;;;;;11.63;8.63;;;5.20;43.50;;;;;;10297966;28;20247;-69
2023/01/26 01:56:50;;;;;;;11.00;8.13;;;5.20;43.80;;;;;;10298168;28;20234;-69
2023/01/26 02:01:55;;;;;;;9.93;8.60;;;5.20;43.80;;;;;;10296701;28;20242;-70
2023/01/26 02:07:00;;;;;;;10.80;8.77;;;5.30;43.80;;;;;;10298268;28;20250;-70
2023/01/26 02:12:08;;;;;;;10.43;8.70;;;5.20;43.70;;;;;;10293819;28;20236;-70
2023/01/26 02:17:11;;;;;;;11.23;8.87;;;5.20;43.60;;;;;;10300365;28;20243;-72
2023/01/26 02:22:23;;;;;;;10.10;8.43;;;5.20;43.50;;;;;;10301683;28;20277;-72
2023/01/26 02:27:29;;;;;;;8.97;8.07;;;5.20;43.50;;;;;;10307157;28;20262;-73
2023/01/26 02:32:32;;;;;;;9.83;8.47;;;5.10;43.70;;;;;;10306118;28;20235;-70
2023/01/26 02:37:35;;;;;;;9.93;8.40;;;5.10;43.80;;;;;;10292888;28;20235;-71
2023/01/26 02:42:40;;;;;;;9.30;8.07;;;5.20;43.80;;;;;;10298816;28;20242;-70
2023/01/26 02:47:44;;;;;;;10.40;8.67;;;5.10;43.60;;;;;;10298643;28;20239;-68
2023/01/26 02:52:48;;;;;;;9.70;8.27;;;5.10;43.40;;;;;;10295044;28;20235;-69
2023/01/26 02:57:54;;;;;;;8.53;7.17;;;5.10;42.90;;;;;;10300651;28;20243;-69
2023/01/26 03:03:00;;;;;;;8.10;7.23;;;4.90;43.10;;;;;;10297574;28;20658;-69
2023/01/26 03:08:05;;;;;;;9.23;7.77;;;4.80;43.40;;;;;;10303614;28;20234;-71
2023/01/26 03:13:09;;;;;;;8.30;6.50;;;4.80;43.70;;;;;;10303827;28;20293;-71
2023/01/26 03:28:53;;;;;;;9.33;7.63;;;4.90;43.60;;;;;;10305730;28;20232;-69
2023/01/26 03:33:56;;;;;;;7.37;6.03;;;4.90;43.60;;;;;;10304766;28;20226;-69
2023/01/26 03:38:59;;;;;;;7.70;6.90;;;4.90;43.60;;;;;;10302560;28;20243;-71
2023/01/26 04:00:08;;;;;;;10.23;7.87;;;5.00;43.60;;;;;;10299668;28;20261;-70
2023/01/26 04:10:32;;;;;;;9.50;8.03;;;5.00;43.90;;;;;;10303174;28;20260;-71
2023/01/26 04:26:19;;;;;;;10.30;8.20;;;5.00;43.60;;;;;;10304465;28;20227;-73
2023/01/26 04:31:23;;;;;;;9.70;7.93;;;5.10;43.60;;;;;;10311112;28;20235;-74
2023/01/26 04:36:28;;;;;;;10.73;8.37;;;5.10;43.60;;;;;;10301933;28;20228;-73
2023/01/26 04:41:33;;;;;;;8.47;6.90;;;5.10;43.50;;;;;;10302681;28;20227;-73
2023/01/26 04:46:37;;;;;;;10.37;8.10;;;5.10;43.50;;;;;;10304065;28;20253;-73
2023/01/26 04:51:40;;;;;;;10.47;8.33;;;5.10;43.40;;;;;;10305253;28;21029;-71
2023/01/26 04:56:43;;;;;;;11.57;9.07;;;5.20;43.50;;;;;;10298933;28;20228;-71
2023/01/26 05:01:48;;;;;;;12.10;8.77;;;5.20;43.40;;;;;;10301278;28;20235;-73
2023/01/26 05:06:51;;;;;;;10.60;8.00;;;5.10;42.90;;;;;;10301875;28;20314;-71
2023/01/26 05:12:32;;;;;;;10.80;8.23;;;5.10;43.10;;;;;;10296001;28;20315;-70
2023/01/26 05:17:19;;;;;;;10.43;8.37;;;5.10;43.10;;;;;;10305312;28;20231;-69
2023/01/26 05:22:23;;;;;;;10.07;7.77;;;5.00;43.00;;;;;;10307062;28;20251;-71
2023/01/26 05:27:26;;;;;;;10.10;8.30;;;5.00;44.00;;;;;;10295884;28;20738;-70
2023/01/26 05:32:31;;;;;;;11.77;8.17;;;5.00;43.40;;;;;;10297383;28;20230;-70
2023/01/26 05:37:35;;;;;;;10.43;8.33;;;5.00;43.40;;;;;;10295936;28;20234;-71
2023/01/26 05:42:38;;;;;;;10.40;8.77;;;5.00;43.60;;;;;;10296165;28;20245;-72
2023/01/26 05:47:44;;;;;;;16.23;12.87;;;5.00;43.60;;;;;;10299492;28;20235;-71
2023/01/26 05:52:48;;;;;;;14.90;11.50;;;5.10;43.50;;;;;;10298433;28;20243;-73
2023/01/26 05:57:51;;;;;;;12.67;10.07;;;5.10;43.50;;;;;;10302309;28;20257;-73
2023/01/26 06:02:56;;;;;;;12.47;9.47;;;5.00;43.70;;;;;;10303482;28;20660;-71
2023/01/26 06:07:59;;;;;;;11.40;9.10;;;5.00;43.60;;;;;;10298616;28;20239;-71
2023/01/26 06:13:02;;;;;;;10.40;8.03;;;5.10;43.60;;;;;;10300127;28;20234;-71
2023/01/26 06:18:07;;;;;;;10.13;7.83;;;5.10;43.40;;;;;;10291631;28;20243;-72
2023/01/26 06:23:11;;;;;;;10.40;7.87;;;5.10;43.30;;;;;;10298814;28;20234;-74
2023/01/26 06:28:14;;;;;;;12.33;8.73;;;5.10;43.90;;;;;;10293992;28;20818;-74
2023/01/26 06:33:19;;;;;;;11.33;8.97;;;5.10;43.80;;;;;;10294036;28;21185;-70
2023/01/26 06:38:22;;;;;;;12.20;8.73;;;5.10;43.70;;;;;;10295225;28;20245;-72
2023/01/26 06:43:25;;;;;;;11.70;8.27;;;5.10;43.60;;;;;;10300035;28;20238;-72
2023/01/26 06:48:32;;;;;;;10.90;8.77;;;5.10;43.70;;;;;;10300413;28;20802;-72
2023/01/26 06:53:38;;;;;;;10.37;8.47;;;5.10;43.60;;;;;;10291502;28;20251;-72
2023/01/26 06:58:42;;;;;;;9.77;8.67;;;5.20;43.70;;;;;;10292757;28;20766;-71
2023/01/26 07:03:48;;;;;;;10.60;8.53;;;5.20;43.60;;;;;;10298747;28;20239;-71
2023/01/26 07:08:51;;;;;;;11.27;9.03;;;5.20;43.50;;;;;;10302296;28;20301;-72
2023/01/26 07:13:54;;;;;;;9.93;8.43;;;5.20;43.30;;;;;;10304490;28;20219;-72
2023/01/26 07:18:58;;;;;;;10.47;9.07;;;5.10;43.20;;;;;;10295636;28;20260;-72
2023/01/26 07:24:01;;;;;;;11.90;9.63;;;5.10;42.90;;;;;;10298417;28;20238;-73
2023/01/26 07:29:05;;;;;;;11.20;8.40;;;5.00;43.10;;;;;;10297270;28;20773;-75
2023/01/26 07:34:10;;;;;;;12.03;9.33;;;4.90;42.90;;;;;;10298032;28;20900;-75
2023/01/26 07:39:14;;;;;;;10.50;8.00;;;4.90;42.90;;;;;;10299861;28;20231;-74
2023/01/26 07:44:17;;;;;;;9.83;7.53;;;4.80;43.10;;;;;;10304284;28;20231;-75
2023/01/26 07:49:21;;;;;;;10.27;7.70;;;4.80;43.10;;;;;;10303024;28;20314;-74
2023/01/26 07:54:25;;;;;;;10.50;8.50;;;4.80;43.20;;;;;;10304463;28;20290;-72
2023/01/26 07:59:28;;;;;;;11.33;7.63;;;4.90;43.30;;;;;;10293160;28;20239;-72
2023/01/26 08:04:32;;;;;;;11.70;9.20;;;4.80;43.10;;;;;;10294286;28;21237;-71
2023/01/26 08:09:36;;;;;;;12.00;8.03;;;4.80;43.20;;;;;;10292230;28;21283;-71
2023/01/26 08:14:39;;;;;;;10.50;8.37;;;4.70;43.10;;;;;;10288149;28;21071;-70
2023/01/26 08:19:50;;;;;;;10.60;7.20;;;4.70;43.00;;;;;;10296722;28;20270;-71
2023/01/26 08:24:53;;;;;;;9.47;7.50;;;4.70;43.40;;;;;;10295650;28;20238;-70
2023/01/26 08:29:57;;;;;;;9.93;7.83;;;4.70;43.60;;;;;;10292542;28;20235;-70
2023/01/26 08:35:02;;;;;;;9.63;8.17;;;4.80;43.40;;;;;;10294888;28;20499;-72
2023/01/26 08:40:06;;;;;;;9.47;7.73;;;4.80;43.30;;;;;;10293892;28;20335;-74
2023/01/26 08:45:10;;;;;;;10.77;8.17;;;4.80;43.20;;;;;;10295339;28;20230;-72
2023/01/26 08:50:16;;;;;;;10.53;7.70;;;4.80;43.40;;;;;;10294872;28;20219;-71
2023/01/26 08:55:19;;;;;;;10.33;7.67;;;4.80;43.50;;;;;;10293940;28;20228;-72
2023/01/26 09:00:24;;;;;;;10.40;8.03;;;4.80;43.50;;;;;;10295748;28;20230;-74
2023/01/26 09:05:33;;;;;;;10.13;8.00;;;4.90;43.40;;;;;;10294446;28;20235;-73
2023/01/26 09:10:37;;;;;;;10.97;8.20;;;4.90;43.30;;;;;;10297756;28;20257;-73
2023/01/26 09:15:40;;;;;;;9.00;6.57;;;4.80;43.30;;;;;;10291553;28;20235;-74
2023/01/26 09:20:45;;;;;;;9.60;7.33;;;4.90;43.40;;;;;;10292185;28;20235;-73
2023/01/26 09:25:53;;;;;;;9.00;6.97;;;4.80;43.20;;;;;;10297453;28;20237;-73
2023/01/26 09:30:56;;;;;;;9.87;7.53;;;4.80;43.40;;;;;;10293570;28;20215;-70
2023/01/26 09:36:05;;;;;;;9.30;7.37;;;4.80;43.60;;;;;;10289434;28;20234;-70
2023/01/26 09:41:22;;;;;;;9.33;6.97;;;4.80;43.50;;;;;;10290005;28;20232;-71
2023/01/26 09:46:29;;;;;;;8.10;7.00;;;4.80;43.50;;;;;;10288772;28;20238;-71
2023/01/26 09:51:37;;;;;;;9.90;7.17;;;4.90;43.70;;;;;;10289559;28;20231;-71
2023/01/26 09:56:41;;;;;;;9.47;6.93;;;4.90;43.80;;;;;;10290440;28;20231;-71
2023/01/26 10:01:52;;;;;;;7.80;6.63;;;4.90;43.70;;;;;;10286356;28;20232;-71
2023/01/26 10:06:58;;;;;;;8.57;6.33;;;5.00;43.80;;;;;;10290893;28;20250;-71
2023/01/26 10:12:04;;;;;;;7.67;6.67;;;5.00;43.80;;;;;;10289599;28;20582;-71
2023/01/26 10:17:14;;;;;;;8.10;6.13;;;5.00;43.50;;;;;;10295302;28;20231;-71
2023/01/26 10:22:27;;;;;;;7.37;6.13;;;5.00;43.00;;;;;;10289726;28;20243;-72
2023/01/26 10:27:30;;;;;;;7.50;5.97;;;5.00;42.80;;;;;;10286663;28;20277;-71
2023/01/26 10:32:35;;;;;;;7.70;5.97;;;5.00;42.80;;;;;;10287741;28;20231;-71
2023/01/26 10:37:40;;;;;;;6.30;5.20;;;5.00;42.90;;;;;;10287895;28;20318;-71
2023/01/26 10:42:55;;;;;;;6.70;5.77;;;5.00;43.60;;;;;;10284823;28;20253;-70
2023/01/26 10:48:06;;;;;;;6.33;5.43;;;5.00;43.30;;;;;;10286401;28;20616;-70
2023/01/26 10:53:17;;;;;;;6.30;5.30;;;5.00;42.70;;;;;;10287178;28;20609;-70
2023/01/26 10:58:46;;;;;;;5.67;4.93;;;5.00;42.70;;;;;;10286880;28;20318;-70
2023/01/26 11:04:05;;;;;;;7.63;6.07;;;5.10;42.80;;;;;;10292278;28;20245;-70
2023/01/26 11:09:16;;;;;;;8.10;6.80;;;5.10;42.80;;;;;;10283929;28;20326;-70
2023/01/26 11:14:21;;;;;;;8.40;6.73;;;5.10;42.80;;;;;;10294008;28;20223;-71
2023/01/26 11:19:40;;;;;;;7.80;6.83;;;5.10;43.20;;;;;;10294409;28;20238;-70
2023/01/26 11:24:51;;;;;;;8.23;7.27;;;5.10;42.80;;;;;;10292626;28;20242;-70
2023/01/26 11:30:14;;;;;;;7.87;7.07;;;5.10;42.80;;;;;;10293299;28;20236;-70
2023/01/26 11:35:28;;;;;;;8.43;7.33;;;5.20;42.90;;;;;;10303437;28;20227;-70
2023/01/26 11:40:41;;;;;;;7.97;7.17;;;5.20;42.90;;;;;;10300011;28;20226;-70
2023/01/26 11:46:01;;;;;;;7.50;6.80;;;5.20;42.90;;;;;;10305489;28;20235;-70
2023/01/26 11:51:12;;;;;;;8.03;7.27;;;5.20;42.90;;;;;;10303930;28;20232;-71
2023/01/26 11:56:25;;;;;;;7.80;7.07;;;5.20;43.20;;;;;;10302178;28;20797;-70
2023/01/26 12:01:33;;;;;;;9.10;7.43;;;5.20;43.40;;;;;;10301427;28;20231;-70
2023/01/26 12:06:38;;;;;;;8.00;7.27;;;5.30;43.40;;;;;;10297879;28;20231;-70
2023/01/26 12:11:49;;;;;;;8.20;7.30;;;5.30;43.40;;;;;;10299897;28;20231;-70
2023/01/26 12:17:20;;;;;;;8.30;7.50;;;5.40;43.10;;;;;;10297099;28;20236;-70
2023/01/26 12:22:29;;;;;;;10.13;8.60;;;5.40;43.10;;;;;;10289837;28;20228;-71
2023/01/26 12:27:42;;;;;;;10.20;8.67;;;5.40;43.50;;;;;;10292212;28;20231;-70
2023/01/26 12:32:46;;;;;;;10.10;9.10;;;5.40;43.40;;;;;;10293770;28;20231;-71
2023/01/26 12:37:58;;;;;;;9.23;8.33;;;5.40;43.30;;;;;;10287147;28;20749;-71
2023/01/26 12:43:36;;;;;;;9.47;8.47;;;5.40;43.20;;;;;;10296597;28;21111;-71
2023/01/26 12:48:44;;;;;;;8.70;7.80;;;5.40;43.10;;;;;;10294609;28;20920;-70
2023/01/26 12:53:54;;;;;;;8.73;7.73;;;5.40;43.10;;;;;;10296226;28;20243;-70
2023/01/26 12:59:05;;;;;;;8.93;8.03;;;5.40;43.10;;;;;;10297507;28;20226;-70
2023/01/26 13:04:13;;;;;;;8.80;7.97;;;5.40;43.10;;;;;;10295145;28;20227;-70
2023/01/26 13:09:22;;;;;;;7.90;6.97;;;5.40;43.10;;;;;;10295901;28;20228;-69
2023/01/26 13:14:38;;;;;;;7.60;6.90;;;5.40;43.10;;;;;;10298779;28;20235;-70
2023/01/26 13:19:52;;;;;;;8.17;7.10;;;5.40;43.10;;;;;;10301860;28;20241;-70
2023/01/26 13:24:58;;;;;;;8.20;7.40;;;5.40;43.10;;;;;;10298418;28;20635;-69
2023/01/26 13:30:03;;;;;;;8.67;7.87;;;5.30;43.00;;;;;;10299075;28;20222;-68
2023/01/26 13:35:12;;;;;;;9.63;7.97;;;5.30;43.00;;;;;;10300833;28;20711;-69
2023/01/26 13:40:20;;;;;;;8.97;8.03;;;5.30;43.00;;;;;;10297658;28;20254;-68
2023/01/26 13:45:30;;;;;;;10.10;9.10;;;5.30;43.40;;;;;;10302965;28;20607;-69
2023/01/26 13:50:36;;;;;;;11.40;10.27;;;5.30;44.30;;;;;;10301057;28;20223;-69
2023/01/26 13:55:41;;;;;;;10.73;9.63;;;5.40;44.30;;;;;;10295421;28;20379;-70
2023/01/26 14:00:58;;;;;;;10.57;9.47;;;5.50;43.90;;;;;;10296730;28;20589;-70
2023/01/26 14:06:05;;;;;;;10.80;9.10;;;5.60;43.30;;;;;;10301484;28;20278;-69
2023/01/26 14:11:17;;;;;;;9.63;8.73;;;5.60;43.50;;;;;;10295830;28;20219;-70
2023/01/26 14:16:27;;;;;;;8.93;8.03;;;5.60;43.20;;;;;;10297581;28;20242;-70
2023/01/26 14:21:32;;;;;;;9.77;8.77;;;5.60;43.10;;;;;;10294758;28;20237;-69
2023/01/26 14:26:35;;;;;;;8.93;8.10;;;5.60;43.20;;;;;;10296975;28;20235;-71
2023/01/26 14:31:40;;;;;;;9.10;8.20;;;5.50;42.80;;;;;;10299491;28;20234;-71
2023/01/26 14:36:43;;;;;;;7.70;7.00;;;5.30;42.60;;;;;;10294606;28;20656;-74
2023/01/26 14:41:47;;;;;;;9.80;8.80;;;5.20;42.60;;;;;;10292878;28;20230;-72
2023/01/26 14:46:57;;;;;;;6.93;6.33;;;5.20;42.80;;;;;;10294667;28;20574;-72
2023/01/26 14:52:00;;;;;;;8.03;7.23;;;5.20;42.60;;;;;;10292475;28;20223;-71
2023/01/26 14:57:07;;;;;;;8.10;7.30;;;5.10;42.80;;;;;;10293885;28;21144;-71
2023/01/26 15:02:17;;;;;;;7.10;6.40;;;5.20;42.90;;;;;;10295377;28;20840;-74
2023/01/26 15:07:33;;;;;;;6.70;6.10;;;5.20;42.50;;;;;;10302662;28;20258;-71
2023/01/26 15:12:37;;;;;;;6.90;6.30;;;5.10;42.40;;;;;;10303210;28;20227;-71
2023/01/26 15:17:43;;;;;;;7.20;6.50;;;5.10;42.80;;;;;;10304832;28;20262;-71
2023/01/26 15:22:49;;;;;;;6.97;6.17;;;5.10;42.80;;;;;;10302837;28;20231;-71
2023/01/26 15:27:54;;;;;;;6.57;5.97;;;5.20;42.90;;;;;;10303168;28;20239;-71
2023/01/26 15:33:02;;;;;;;18.37;11.87;;;5.20;42.90;;;;;;10304812;28;20247;-71
2023/01/26 15:38:09;;;;;;;7.87;6.50;;;5.30;43.00;;;;;;10300626;28;20243;-72
2023/01/26 15:43:12;;;;;;;8.13;7.10;;;5.30;43.00;;;;;;10303205;28;20250;-71
2023/01/26 15:48:17;;;;;;;7.93;7.23;;;5.40;43.10;;;;;;10298224;28;20235;-71
2023/01/26 15:53:22;;;;;;;8.77;7.97;;;5.40;43.10;;;;;;10303677;28;20223;-71
2023/01/26 15:58:27;;;;;;;8.20;7.37;;;5.50;43.20;;;;;;10299191;28;20328;-71
2023/01/26 16:03:32;;;;;;;9.30;8.40;;;5.50;43.20;;;;;;10301106;28;20235;-71
2023/01/26 16:08:35;;;;;;;8.23;7.43;;;5.60;43.20;;;;;;10301573;28;20250;-71
2023/01/26 16:13:39;;;;;;;7.80;7.00;;;5.60;43.20;;;;;;10295090;28;20238;-71
2023/01/26 16:18:43;;;;;;;7.17;6.47;;;5.70;43.30;;;;;;10303720;28;20234;-71
2023/01/26 16:23:47;;;;;;;7.90;7.10;;;5.70;42.80;;;;;;10299395;28;20250;-71
2023/01/26 16:28:50;;;;;;;7.00;6.40;;;5.70;42.90;;;;;;10296580;28;20649;-71
2023/01/26 16:33:55;;;;;;;8.23;7.43;;;5.70;42.80;;;;;;10300204;28;20959;-71
2023/01/26 16:38:58;;;;;;;7.80;7.10;;;5.80;42.90;;;;;;10302059;28;20247;-70
2023/01/26 16:44:02;;;;;;;8.10;7.30;;;5.80;42.80;;;;;;10303102;28;20614;-70
2023/01/26 16:49:07;;;;;;;8.87;8.03;;;5.70;42.60;;;;;;10301976;28;20231;-71
2023/01/26 16:54:11;;;;;;;13.00;11.70;;;5.70;42.60;;;;;;10306106;28;20235;-70
2023/01/26 16:59:14;;;;;;;8.60;7.70;;;5.70;42.60;;;;;;10302946;28;20227;-70
2023/01/26 17:04:19;;;;;;;9.90;8.53;;;5.70;42.40;;;;;;10304642;28;20231;-70
2023/01/26 17:09:22;;;;;;;7.93;7.03;;;5.70;42.20;;;;;;10306010;28;20321;-70
2023/01/26 17:14:25;;;;;;;7.03;6.33;;;5.60;42.20;;;;;;10307845;28;20255;-70
2023/01/26 17:19:30;;;;;;;6.80;6.17;;;5.60;42.40;;;;;;10301632;28;20239;-70
2023/01/26 17:24:35;;;;;;;9.40;8.33;;;5.50;42.30;;;;;;10304374;28;20239;-70
2023/01/26 17:29:40;;;;;;;9.27;8.27;;;5.50;42.40;;;;;;10303789;28;20781;-70
2023/01/26 17:34:45;;;;;;;8.50;7.60;;;5.40;42.40;;;;;;10300434;28;20735;-70
2023/01/26 17:39:48;;;;;;;7.43;6.73;;;5.40;42.50;;;;;;10300959;28;20242;-71
2023/01/26 17:44:52;;;;;;;7.70;7.00;;;5.40;42.50;;;;;;10302374;28;20281;-75
2023/01/26 17:49:56;;;;;;;7.20;6.60;;;5.40;42.40;;;;;;10300491;28;20234;-75
2023/01/26 17:54:59;;;;;;;7.70;7.00;;;5.40;42.60;;;;;;10302648;28;20985;-75
2023/01/26 18:00:05;;;;;;;8.70;7.90;;;5.40;42.80;;;;;;10302999;28;20236;-75
2023/01/26 18:05:10;;;;;;;7.77;7.07;;;5.40;43.00;;;;;;10299130;28;20231;-75
2023/01/26 18:10:13;;;;;;;7.30;6.70;;;5.40;44.00;;;;;;10300447;28;20962;-75
2023/01/26 18:15:16;;;;;;;7.27;6.57;;;5.50;43.60;;;;;;10300797;28;20235;-75
2023/01/26 18:20:22;;;;;;;7.67;6.97;;;5.60;43.20;;;;;;10293426;28;20224;-76
2023/01/26 18:25:25;;;;;;;9.43;8.53;;;5.60;43.10;;;;;;10294028;28;20627;-76
2023/01/26 18:30:28;;;;;;;10.07;9.07;;;5.60;43.00;;;;;;10299323;28;20314;-71
2023/01/26 18:35:34;;;;;;;8.70;7.90;;;5.60;42.80;;;;;;10292834;28;20298;-71
2023/01/26 18:40:39;;;;;;;9.37;8.47;;;5.60;42.70;;;;;;10311138;28;20240;-71
2023/01/26 18:45:42;;;;;;;9.47;8.53;;;5.60;42.60;;;;;;10311603;28;20757;-71
2023/01/26 18:50:49;;;;;;;9.77;8.87;;;5.60;42.60;;;;;;10301821;28;20259;-71
2023/01/26 18:56:01;;;;;;;8.87;7.97;;;5.60;42.50;;;;;;10314884;28;20634;-71
2023/01/26 19:01:08;;;;;;;10.13;9.13;;;5.60;42.30;;;;;;10302877;28;20227;-75
2023/01/26 19:06:16;;;;;;;9.50;8.50;;;5.50;42.40;;;;;;10299292;28;20232;-75
2023/01/26 19:11:20;;;;;;;9.00;8.10;;;5.50;42.40;;;;;;10306293;28;20229;-75
2023/01/26 19:16:24;;;;;;;8.83;7.60;;;5.40;42.30;;;;;;10298591;28;20289;-71
2023/01/26 19:21:29;;;;;;;7.87;7.17;;;5.30;42.40;;;;;;10306009;28;20254;-70
2023/01/26 19:26:35;;;;;;;8.00;7.00;;;5.30;42.30;;;;;;10303319;28;20739;-74
2023/01/26 19:31:38;;;;;;;7.37;6.60;;;5.30;42.50;;;;;;10302117;28;20786;-72
2023/01/26 19:36:45;;;;;;;7.40;6.50;;;5.20;42.60;;;;;;10300939;28;20251;-74
2023/01/26 19:41:49;;;;;;;7.87;6.87;;;5.20;42.80;;;;;;10302986;28;20237;-71
2023/01/26 19:46:53;;;;;;;7.70;6.90;;;5.10;42.60;;;;;;10302315;28;20235;-71
2023/01/26 19:51:57;;;;;;;7.37;6.57;;;5.10;42.80;;;;;;10303067;28;20620;-75
2023/01/26 19:57:01;;;;;;;7.97;6.83;;;5.10;42.80;;;;;;10301677;28;20240;-75
2023/01/26 20:02:04;;;;;;;8.23;6.70;;;5.10;42.80;;;;;;10300446;28;20227;-74
2023/01/26 20:07:08;;;;;;;7.00;6.30;;;5.00;42.80;;;;;;10297095;28;20707;-73
2023/01/26 20:12:12;;;;;;;8.53;6.63;;;5.00;43.40;;;;;;10299679;28;20790;-72
2023/01/26 20:17:15;;;;;;;8.40;6.63;;;5.00;42.70;;;;;;10292570;28;20993;-74
2023/01/26 20:22:20;;;;;;;8.23;6.50;;;4.90;42.70;;;;;;10297346;28;20238;-70
2023/01/26 20:27:23;;;;;;;7.77;6.97;;;4.90;42.90;;;;;;10282977;28;20817;-70
2023/01/26 20:32:26;;;;;;;8.93;6.83;;;4.90;42.80;;;;;;10278514;28;20238;-70
2023/01/26 20:37:33;;;;;;;7.40;6.60;;;4.90;42.80;;;;;;10296513;28;20656;-72
2023/01/26 20:42:36;;;;;;;7.67;6.40;;;4.80;43.00;;;;;;10281914;28;20219;-72
2023/01/26 20:47:39;;;;;;;7.83;6.20;;;4.70;43.00;;;;;;10292189;28;21030;-72
2023/01/26 20:52:44;;;;;;;6.63;6.00;;;4.60;43.10;;;;;;10296244;28;20239;-72
2023/01/26 20:57:48;;;;;;;6.37;5.77;;;4.50;43.40;;;;;;10301148;28;20738;-72
2023/01/26 21:02:51;;;;;;;6.40;5.70;;;4.60;43.60;;;;;;10302425;28;20231;-70
2023/01/26 21:07:56;;;;;;;5.80;5.20;;;4.60;43.60;;;;;;10302002;28;20238;-70
2023/01/26 21:12:59;;;;;;;6.33;5.50;;;4.60;43.50;;;;;;10298492;28;21809;-70
2023/01/26 21:18:02;;;;;;;4.50;4.10;;;4.60;43.40;;;;;;10296145;28;20227;-70
2023/01/26 21:23:07;;;;;;;4.83;3.90;;;4.60;43.30;;;;;;10301212;28;20230;-70
2023/01/26 21:28:10;;;;;;;4.03;3.70;;;4.50;43.20;;;;;;10299630;28;20231;-70
2023/01/26 21:33:13;;;;;;;4.30;3.90;;;4.50;43.30;;;;;;10296358;28;20231;-72
2023/01/26 21:38:18;;;;;;;4.77;4.27;;;4.50;43.30;;;;;;10298720;28;20224;-70
2023/01/26 21:43:21;;;;;;;4.67;4.27;;;4.50;43.50;;;;;;10294443;28;21119;-74
2023/01/26 21:48:30;;;;;;;4.77;4.27;;;4.50;43.50;;;;;;10292114;28;20230;-70
2023/01/26 21:53:35;;;;;;;4.83;4.33;;;4.50;43.60;;;;;;10293898;28;20222;-69
2023/01/26 21:58:56;;;;;;;5.70;5.10;;;4.50;43.50;;;;;;10288550;28;20239;-71
2023/01/26 22:04:01;;;;;;;5.23;4.73;;;4.50;43.60;;;;;;10293949;28;20575;-74
2023/01/26 22:09:06;;;;;;;5.10;4.60;;;4.50;43.60;;;;;;10295396;28;20231;-74
2023/01/26 22:14:14;;;;;;;6.13;4.90;;;4.50;43.50;;;;;;10293518;28;20238;-72
2023/01/26 22:19:17;;;;;;;5.50;5.00;;;4.50;43.60;;;;;;10291540;28;20223;-75
2023/01/26 22:24:22;;;;;;;6.10;4.77;;;4.50;43.40;;;;;;10288381;28;20220;-74
2023/01/26 22:29:25;;;;;;;5.47;4.93;;;4.50;43.50;;;;;;10297099;28;20238;-72
2023/01/26 22:34:28;;;;;;;6.03;5.37;;;4.50;43.40;;;;;;10293564;28;20235;-72
2023/01/26 22:39:33;;;;;;;6.63;5.57;;;4.50;43.40;;;;;;10296575;28;20231;-74
2023/01/26 22:44:36;;;;;;;7.27;5.30;;;4.40;44.00;;;;;;10297553;28;20265;-74
2023/01/26 22:49:39;;;;;;;6.90;5.03;;;4.40;43.20;;;;;;10291292;28;20227;-72
2023/01/26 22:54:43;;;;;;;5.77;4.87;;;4.40;43.20;;;;;;10296135;28;20238;-70
2023/01/26 22:59:46;;;;;;;6.17;5.13;;;4.40;43.10;;;;;;10291150;28;21021;-72
2023/01/26 23:04:49;;;;;;;6.47;5.23;;;4.30;43.10;;;;;;10290045;28;20244;-70
2023/01/26 23:09:54;;;;;;;6.80;5.77;;;4.30;43.10;;;;;;10292000;28;20246;-70
2023/01/26 23:14:57;;;;;;;7.00;5.50;;;4.30;43.00;;;;;;10296783;28;20238;-70
2023/01/26 23:20:01;;;;;;;8.17;6.43;;;4.20;43.20;;;;;;10297560;28;20248;-72
2023/01/26 23:30:27;;;;;;;7.83;5.77;;;4.00;43.50;;;;;;10303122;28;20223;-74
2023/01/26 23:35:30;;;;;;;6.63;5.60;;;3.90;43.70;;;;;;10300270;28;20737;-70
2023/01/26 23:40:35;;;;;;;7.53;5.90;;;3.90;43.60;;;;;;10297787;28;20600;-72
2023/01/26 23:45:39;;;;;;;7.43;6.33;;;3.90;43.70;;;;;;10305151;28;20246;-72
2023/01/26 23:50:42;;;;;;;7.90;6.17;;;3.90;43.60;;;;;;10294487;28;20234;-72
2023/01/26 23:55:47;;;;;;;7.30;6.20;;;4.10;43.80;;;;;;10297070;28;20232;-75
